sensor_id;sensor_type;location;lat;lon;timestamp;P1;durP1;ratioP1;P2;durP2;ratioP2
11970;SDS011;6045;42.682;23.294;2022-12-18T00:00:39;2.77;;;2.13;;
11970;SDS011;6045;42.682;23.294;2022-12-18T00:03:06;2.30;;;2.10;;
11970;SDS011;6045;42.682;23.294;2022-12-18T00:05:33;2.33;;;2.13;;
11970;SDS011;6045;42.682;23.294;2022-12-18T00:08:00;3.57;;;2.10;;
11970;SDS011;6045;42.682;23.294;2022-12-18T00:10:27;3.70;;;2.47;;
11970;SDS011;6045;42.682;23.294;2022-12-18T00:12:55;2.50;;;2.17;;
11970;SDS011;6045;42.682;23.294;2022-12-18T00:15:22;3.07;;;2.40;;
11970;SDS011;6045;42.682;23.294;2022-12-18T00:17:49;3.33;;;2.10;;
11970;SDS011;6045;42.682;23.294;2022-12-18T00:20:16;2.53;;;1.63;;
11970;SDS011;6045;42.682;23.294;2022-12-18T00:22:46;2.03;;;1.93;;
11970;SDS011;6045;42.682;23.294;2022-12-18T00:25:13;5.37;;;2.90;;
11970;SDS011;6045;42.682;23.294;2022-12-18T00:27:40;3.67;;;2.80;;
11970;SDS011;6045;42.682;23.294;2022-12-18T00:30:09;2.37;;;2.10;;
11970;SDS011;6045;42.682;23.294;2022-12-18T00:32:37;3.37;;;3.07;;
11970;SDS011;6045;42.682;23.294;2022-12-18T00:35:04;2.23;;;2.03;;
11970;SDS011;6045;42.682;23.294;2022-12-18T00:37:33;2.30;;;2.03;;
11970;SDS011;6045;42.682;23.294;2022-12-18T00:39:59;2.80;;;1.80;;
11970;SDS011;6045;42.682;23.294;2022-12-18T00:42:26;3.63;;;2.97;;
11970;SDS011;6045;42.682;23.294;2022-12-18T00:45:12;2.20;;;1.73;;
11970;SDS011;6045;42.682;23.294;2022-12-18T00:47:39;3.10;;;2.53;;
11970;SDS011;6045;42.682;23.294;2022-12-18T00:50:06;5.20;;;4.03;;
11970;SDS011;6045;42.682;23.294;2022-12-18T00:52:34;3.77;;;2.77;;
11970;SDS011;6045;42.682;23.294;2022-12-18T00:55:01;2.80;;;2.57;;
11970;SDS011;6045;42.682;23.294;2022-12-18T00:57:27;3.50;;;2.43;;
11970;SDS011;6045;42.682;23.294;2022-12-18T00:59:54;6.50;;;3.10;;
11970;SDS011;6045;42.682;23.294;2022-12-18T01:02:22;6.53;;;3.47;;
11970;SDS011;6045;42.682;23.294;2022-12-18T01:04:49;5.57;;;3.50;;
11970;SDS011;6045;42.682;23.294;2022-12-18T01:07:17;3.83;;;2.53;;
11970;SDS011;6045;42.682;23.294;2022-12-18T01:09:44;2.83;;;1.73;;
11970;SDS011;6045;42.682;23.294;2022-12-18T01:12:11;5.60;;;2.93;;
11970;SDS011;6045;42.682;23.294;2022-12-18T01:14:37;2.83;;;1.63;;
11970;SDS011;6045;42.682;23.294;2022-12-18T01:17:04;3.00;;;2.57;;
11970;SDS011;6045;42.682;23.294;2022-12-18T01:19:33;3.37;;;2.63;;
11970;SDS011;6045;42.682;23.294;2022-12-18T01:21:59;5.87;;;3.77;;
11970;SDS011;6045;42.682;23.294;2022-12-18T01:24:26;6.53;;;4.03;;
11970;SDS011;6045;42.682;23.294;2022-12-18T01:26:53;4.37;;;2.77;;
11970;SDS011;6045;42.682;23.294;2022-12-18T01:29:20;5.97;;;2.93;;
11970;SDS011;6045;42.682;23.294;2022-12-18T01:31:47;3.30;;;2.50;;
11970;SDS011;6045;42.682;23.294;2022-12-18T01:34:16;5.23;;;3.70;;
11970;SDS011;6045;42.682;23.294;2022-12-18T01:36:44;4.13;;;3.37;;
11970;SDS011;6045;42.682;23.294;2022-12-18T01:39:12;3.23;;;2.83;;
11970;SDS011;6045;42.682;23.294;2022-12-18T01:41:41;3.50;;;2.43;;
11970;SDS011;6045;42.682;23.294;2022-12-18T01:47:33;3.53;;;2.20;;
11970;SDS011;6045;42.682;23.294;2022-12-18T01:50:05;6.27;;;3.07;;
11970;SDS011;6045;42.682;23.294;2022-12-18T01:52:35;4.37;;;2.60;;
11970;SDS011;6045;42.682;23.294;2022-12-18T01:55:10;1.60;;;1.50;;
11970;SDS011;6045;42.682;23.294;2022-12-18T01:57:38;2.53;;;2.30;;
11970;SDS011;6045;42.682;23.294;2022-12-18T02:00:07;2.73;;;2.17;;
11970;SDS011;6045;42.682;23.294;2022-12-18T02:02:36;2.77;;;2.17;;
11970;SDS011;6045;42.682;23.294;2022-12-18T02:05:04;5.93;;;3.03;;
11970;SDS011;6045;42.682;23.294;2022-12-18T02:07:35;4.53;;;2.83;;
11970;SDS011;6045;42.682;23.294;2022-12-18T02:10:12;5.17;;;3.40;;
11970;SDS011;6045;42.682;23.294;2022-12-18T02:12:45;3.10;;;2.47;;
11970;SDS011;6045;42.682;23.294;2022-12-18T02:15:20;4.30;;;2.63;;
11970;SDS011;6045;42.682;23.294;2022-12-18T02:17:54;2.33;;;2.13;;
11970;SDS011;6045;42.682;23.294;2022-12-18T02:20:28;4.30;;;2.80;;
11970;SDS011;6045;42.682;23.294;2022-12-18T02:23:06;4.17;;;2.40;;
11970;SDS011;6045;42.682;23.294;2022-12-18T02:28:35;4.00;;;2.77;;
11970;SDS011;6045;42.682;23.294;2022-12-18T02:31:06;6.70;;;3.93;;
11970;SDS011;6045;42.682;23.294;2022-12-18T02:33:37;4.40;;;2.87;;
11970;SDS011;6045;42.682;23.294;2022-12-18T02:36:06;3.47;;;2.83;;
11970;SDS011;6045;42.682;23.294;2022-12-18T02:38:34;2.63;;;2.20;;
11970;SDS011;6045;42.682;23.294;2022-12-18T02:41:03;4.67;;;2.80;;
11970;SDS011;6045;42.682;23.294;2022-12-18T02:43:31;4.23;;;2.27;;
11970;SDS011;6045;42.682;23.294;2022-12-18T02:45:59;4.20;;;1.97;;
11970;SDS011;6045;42.682;23.294;2022-12-18T02:48:28;2.60;;;2.37;;
11970;SDS011;6045;42.682;23.294;2022-12-18T02:50:59;2.63;;;2.33;;
11970;SDS011;6045;42.682;23.294;2022-12-18T02:53:31;3.13;;;2.27;;
11970;SDS011;6045;42.682;23.294;2022-12-18T02:56:05;4.07;;;2.33;;
11970;SDS011;6045;42.682;23.294;2022-12-18T02:58:40;1.83;;;1.70;;
11970;SDS011;6045;42.682;23.294;2022-12-18T03:01:14;2.30;;;2.10;;
11970;SDS011;6045;42.682;23.294;2022-12-18T03:03:46;5.87;;;2.10;;
11970;SDS011;6045;42.682;23.294;2022-12-18T03:06:20;2.57;;;2.10;;
11970;SDS011;6045;42.682;23.294;2022-12-18T03:08:51;3.00;;;2.20;;
11970;SDS011;6045;42.682;23.294;2022-12-18T03:11:24;2.37;;;2.17;;
11970;SDS011;6045;42.682;23.294;2022-12-18T03:14:14;1.93;;;1.80;;
11970;SDS011;6045;42.682;23.294;2022-12-18T03:16:44;4.47;;;3.07;;
11970;SDS011;6045;42.682;23.294;2022-12-18T03:19:15;5.93;;;2.73;;
11970;SDS011;6045;42.682;23.294;2022-12-18T03:21:45;2.67;;;1.80;;
11970;SDS011;6045;42.682;23.294;2022-12-18T03:24:15;2.47;;;2.10;;
11970;SDS011;6045;42.682;23.294;2022-12-18T03:26:47;2.53;;;2.03;;
11970;SDS011;6045;42.682;23.294;2022-12-18T03:29:17;3.10;;;2.23;;
11970;SDS011;6045;42.682;23.294;2022-12-18T03:31:47;2.67;;;1.97;;
11970;SDS011;6045;42.682;23.294;2022-12-18T03:34:21;4.57;;;2.63;;
11970;SDS011;6045;42.682;23.294;2022-12-18T03:36:53;2.27;;;2.03;;
11970;SDS011;6045;42.682;23.294;2022-12-18T03:39:19;2.00;;;1.90;;
11970;SDS011;6045;42.682;23.294;2022-12-18T03:41:49;5.40;;;2.47;;
11970;SDS011;6045;42.682;23.294;2022-12-18T03:44:24;2.17;;;1.97;;
11970;SDS011;6045;42.682;23.294;2022-12-18T03:46:57;2.00;;;1.40;;
11970;SDS011;6045;42.682;23.294;2022-12-18T03:49:32;3.77;;;2.47;;
11970;SDS011;6045;42.682;23.294;2022-12-18T03:52:03;4.07;;;2.37;;
11970;SDS011;6045;42.682;23.294;2022-12-18T03:54:33;2.37;;;1.93;;
11970;SDS011;6045;42.682;23.294;2022-12-18T03:57:05;2.87;;;2.07;;
11970;SDS011;6045;42.682;23.294;2022-12-18T03:59:36;4.40;;;2.47;;
11970;SDS011;6045;42.682;23.294;2022-12-18T04:02:05;3.60;;;2.17;;
11970;SDS011;6045;42.682;23.294;2022-12-18T04:04:34;2.60;;;2.37;;
11970;SDS011;6045;42.682;23.294;2022-12-18T04:07:02;1.63;;;1.53;;
11970;SDS011;6045;42.682;23.294;2022-12-18T04:09:30;2.20;;;1.77;;
11970;SDS011;6045;42.682;23.294;2022-12-18T04:11:59;3.23;;;2.10;;
11970;SDS011;6045;42.682;23.294;2022-12-18T04:14:28;2.57;;;1.83;;
11970;SDS011;6045;42.682;23.294;2022-12-18T04:16:54;3.80;;;2.63;;
11970;SDS011;6045;42.682;23.294;2022-12-18T04:19:21;3.33;;;2.63;;
11970;SDS011;6045;42.682;23.294;2022-12-18T04:21:48;4.67;;;3.27;;
11970;SDS011;6045;42.682;23.294;2022-12-18T04:24:15;3.03;;;2.27;;
11970;SDS011;6045;42.682;23.294;2022-12-18T04:26:41;3.47;;;2.70;;
11970;SDS011;6045;42.682;23.294;2022-12-18T04:29:08;3.27;;;2.50;;
11970;SDS011;6045;42.682;23.294;2022-12-18T04:31:36;4.10;;;2.80;;
11970;SDS011;6045;42.682;23.294;2022-12-18T04:34:03;4.17;;;2.47;;
11970;SDS011;6045;42.682;23.294;2022-12-18T04:36:30;6.27;;;3.33;;
11970;SDS011;6045;42.682;23.294;2022-12-18T04:38:57;3.77;;;2.17;;
11970;SDS011;6045;42.682;23.294;2022-12-18T04:41:24;3.87;;;2.23;;
11970;SDS011;6045;42.682;23.294;2022-12-18T04:43:50;4.67;;;3.37;;
11970;SDS011;6045;42.682;23.294;2022-12-18T04:46:17;4.70;;;3.20;;
11970;SDS011;6045;42.682;23.294;2022-12-18T04:48:46;4.40;;;2.73;;
11970;SDS011;6045;42.682;23.294;2022-12-18T04:51:13;4.97;;;2.37;;
11970;SDS011;6045;42.682;23.294;2022-12-18T04:53:40;2.73;;;2.00;;
11970;SDS011;6045;42.682;23.294;2022-12-18T04:56:08;4.03;;;2.53;;
11970;SDS011;6045;42.682;23.294;2022-12-18T04:58:36;4.90;;;3.17;;
11970;SDS011;6045;42.682;23.294;2022-12-18T05:01:04;2.30;;;2.07;;
11970;SDS011;6045;42.682;23.294;2022-12-18T05:03:31;7.37;;;3.63;;
11970;SDS011;6045;42.682;23.294;2022-12-18T05:05:59;3.17;;;2.33;;
11970;SDS011;6045;42.682;23.294;2022-12-18T05:08:26;2.30;;;0.97;;
11970;SDS011;6045;42.682;23.294;2022-12-18T05:10:57;5.07;;;2.47;;
11970;SDS011;6045;42.682;23.294;2022-12-18T05:13:25;4.23;;;2.73;;
11970;SDS011;6045;42.682;23.294;2022-12-18T05:15:52;4.20;;;2.90;;
11970;SDS011;6045;42.682;23.294;2022-12-18T05:18:20;6.77;;;3.73;;
11970;SDS011;6045;42.682;23.294;2022-12-18T05:20:47;5.80;;;2.80;;
11970;SDS011;6045;42.682;23.294;2022-12-18T05:23:15;3.20;;;2.90;;
11970;SDS011;6045;42.682;23.294;2022-12-18T05:25:42;7.53;;;3.07;;
11970;SDS011;6045;42.682;23.294;2022-12-18T05:28:08;5.23;;;3.17;;
11970;SDS011;6045;42.682;23.294;2022-12-18T05:30:35;5.17;;;2.67;;
11970;SDS011;6045;42.682;23.294;2022-12-18T05:33:02;6.60;;;3.13;;
11970;SDS011;6045;42.682;23.294;2022-12-18T05:35:29;3.37;;;2.63;;
11970;SDS011;6045;42.682;23.294;2022-12-18T05:37:55;3.87;;;2.67;;
11970;SDS011;6045;42.682;23.294;2022-12-18T05:40:24;8.43;;;3.47;;
11970;SDS011;6045;42.682;23.294;2022-12-18T05:42:50;5.33;;;2.93;;
11970;SDS011;6045;42.682;23.294;2022-12-18T05:45:17;7.60;;;4.53;;
11970;SDS011;6045;42.682;23.294;2022-12-18T05:47:45;3.47;;;2.93;;
11970;SDS011;6045;42.682;23.294;2022-12-18T05:50:12;11.30;;;5.53;;
11970;SDS011;6045;42.682;23.294;2022-12-18T05:52:38;3.03;;;2.73;;
11970;SDS011;6045;42.682;23.294;2022-12-18T05:55:05;5.27;;;3.10;;
11970;SDS011;6045;42.682;23.294;2022-12-18T05:57:34;13.97;;;3.83;;
11970;SDS011;6045;42.682;23.294;2022-12-18T06:00:01;6.10;;;2.83;;
11970;SDS011;6045;42.682;23.294;2022-12-18T06:02:28;7.80;;;3.20;;
11970;SDS011;6045;42.682;23.294;2022-12-18T06:08:16;3.43;;;2.90;;
11970;SDS011;6045;42.682;23.294;2022-12-18T06:10:45;5.27;;;3.70;;
11970;SDS011;6045;42.682;23.294;2022-12-18T06:13:27;5.53;;;4.00;;
11970;SDS011;6045;42.682;23.294;2022-12-18T06:15:54;8.33;;;4.20;;
11970;SDS011;6045;42.682;23.294;2022-12-18T06:18:21;6.00;;;3.97;;
11970;SDS011;6045;42.682;23.294;2022-12-18T06:20:53;5.53;;;3.70;;
11970;SDS011;6045;42.682;23.294;2022-12-18T06:23:21;8.13;;;2.83;;
11970;SDS011;6045;42.682;23.294;2022-12-18T06:25:48;4.60;;;3.47;;
11970;SDS011;6045;42.682;23.294;2022-12-18T06:28:15;5.73;;;4.17;;
11970;SDS011;6045;42.682;23.294;2022-12-18T06:30:52;4.57;;;3.63;;
11970;SDS011;6045;42.682;23.294;2022-12-18T06:33:19;6.90;;;4.07;;
11970;SDS011;6045;42.682;23.294;2022-12-18T06:35:46;6.53;;;3.43;;
11970;SDS011;6045;42.682;23.294;2022-12-18T06:38:12;6.97;;;5.23;;
11970;SDS011;6045;42.682;23.294;2022-12-18T06:40:39;6.57;;;3.87;;
11970;SDS011;6045;42.682;23.294;2022-12-18T06:43:06;7.60;;;3.50;;
11970;SDS011;6045;42.682;23.294;2022-12-18T06:45:33;7.10;;;3.87;;
11970;SDS011;6045;42.682;23.294;2022-12-18T06:48:01;5.93;;;3.57;;
11970;SDS011;6045;42.682;23.294;2022-12-18T06:50:28;5.37;;;3.20;;
11970;SDS011;6045;42.682;23.294;2022-12-18T06:52:55;5.23;;;4.67;;
11970;SDS011;6045;42.682;23.294;2022-12-18T06:55:22;9.17;;;4.23;;
11970;SDS011;6045;42.682;23.294;2022-12-18T06:57:48;5.40;;;4.20;;
11970;SDS011;6045;42.682;23.294;2022-12-18T07:00:15;6.07;;;2.90;;
11970;SDS011;6045;42.682;23.294;2022-12-18T07:02:42;3.93;;;2.83;;
11970;SDS011;6045;42.682;23.294;2022-12-18T07:05:11;4.67;;;3.43;;
11970;SDS011;6045;42.682;23.294;2022-12-18T07:07:37;6.10;;;4.27;;
11970;SDS011;6045;42.682;23.294;2022-12-18T07:10:04;6.23;;;3.90;;
11970;SDS011;6045;42.682;23.294;2022-12-18T07:12:31;7.23;;;3.03;;
11970;SDS011;6045;42.682;23.294;2022-12-18T07:14:58;5.83;;;3.50;;
11970;SDS011;6045;42.682;23.294;2022-12-18T07:17:25;5.80;;;2.83;;
11970;SDS011;6045;42.682;23.294;2022-12-18T07:19:51;8.57;;;4.60;;
11970;SDS011;6045;42.682;23.294;2022-12-18T07:22:20;5.27;;;4.13;;
11970;SDS011;6045;42.682;23.294;2022-12-18T07:24:46;7.07;;;3.83;;
11970;SDS011;6045;42.682;23.294;2022-12-18T07:27:14;8.70;;;5.13;;
11970;SDS011;6045;42.682;23.294;2022-12-18T07:29:40;6.87;;;4.13;;
11970;SDS011;6045;42.682;23.294;2022-12-18T07:32:07;8.57;;;4.87;;
11970;SDS011;6045;42.682;23.294;2022-12-18T07:34:34;8.00;;;4.50;;
11970;SDS011;6045;42.682;23.294;2022-12-18T07:37:01;6.90;;;4.10;;
11970;SDS011;6045;42.682;23.294;2022-12-18T07:39:29;8.07;;;4.70;;
11970;SDS011;6045;42.682;23.294;2022-12-18T07:41:55;12.87;;;6.00;;
11970;SDS011;6045;42.682;23.294;2022-12-18T07:44:40;6.43;;;4.80;;
11970;SDS011;6045;42.682;23.294;2022-12-18T07:47:06;8.50;;;5.07;;
11970;SDS011;6045;42.682;23.294;2022-12-18T07:49:33;5.23;;;4.40;;
11970;SDS011;6045;42.682;23.294;2022-12-18T07:52:01;8.57;;;4.40;;
11970;SDS011;6045;42.682;23.294;2022-12-18T07:54:29;8.33;;;5.20;;
11970;SDS011;6045;42.682;23.294;2022-12-18T07:56:56;6.07;;;4.23;;
11970;SDS011;6045;42.682;23.294;2022-12-18T07:59:23;9.90;;;3.87;;
11970;SDS011;6045;42.682;23.294;2022-12-18T08:01:50;13.57;;;6.77;;
11970;SDS011;6045;42.682;23.294;2022-12-18T08:04:17;5.43;;;4.47;;
11970;SDS011;6045;42.682;23.294;2022-12-18T08:06:44;11.00;;;6.00;;
11970;SDS011;6045;42.682;23.294;2022-12-18T08:09:10;7.47;;;4.30;;
11970;SDS011;6045;42.682;23.294;2022-12-18T08:11:39;9.90;;;6.23;;
11970;SDS011;6045;42.682;23.294;2022-12-18T08:14:05;11.93;;;4.80;;
11970;SDS011;6045;42.682;23.294;2022-12-18T08:16:32;12.90;;;6.97;;
11970;SDS011;6045;42.682;23.294;2022-12-18T08:18:59;9.50;;;4.93;;
11970;SDS011;6045;42.682;23.294;2022-12-18T08:21:27;11.00;;;4.87;;
11970;SDS011;6045;42.682;23.294;2022-12-18T08:23:56;7.63;;;6.00;;
11970;SDS011;6045;42.682;23.294;2022-12-18T08:26:25;11.40;;;5.70;;
11970;SDS011;6045;42.682;23.294;2022-12-18T08:28:55;8.23;;;6.93;;
11970;SDS011;6045;42.682;23.294;2022-12-18T08:31:22;11.33;;;5.20;;
11970;SDS011;6045;42.682;23.294;2022-12-18T08:33:55;7.57;;;4.93;;
11970;SDS011;6045;42.682;23.294;2022-12-18T08:36:48;4.23;;;3.47;;
11970;SDS011;6045;42.682;23.294;2022-12-18T08:39:22;5.77;;;4.37;;
11970;SDS011;6045;42.682;23.294;2022-12-18T08:42:08;6.90;;;4.37;;
11970;SDS011;6045;42.682;23.294;2022-12-18T08:45:07;4.63;;;4.33;;
11970;SDS011;6045;42.682;23.294;2022-12-18T08:47:38;8.70;;;5.13;;
11970;SDS011;6045;42.682;23.294;2022-12-18T08:50:08;8.20;;;5.63;;
11970;SDS011;6045;42.682;23.294;2022-12-18T08:59:02;4.03;;;2.93;;
11970;SDS011;6045;42.682;23.294;2022-12-18T09:01:36;5.40;;;4.17;;
11970;SDS011;6045;42.682;23.294;2022-12-18T09:04:50;12.00;;;4.63;;
11970;SDS011;6045;42.682;23.294;2022-12-18T09:07:20;11.00;;;5.07;;
11970;SDS011;6045;42.682;23.294;2022-12-18T09:09:50;6.53;;;4.60;;
11970;SDS011;6045;42.682;23.294;2022-12-18T09:12:31;7.13;;;4.00;;
11970;SDS011;6045;42.682;23.294;2022-12-18T09:17:43;11.53;;;4.80;;
11970;SDS011;6045;42.682;23.294;2022-12-18T09:18:27;4.67;;;4.10;;
11970;SDS011;6045;42.682;23.294;2022-12-18T09:20:56;6.47;;;3.80;;
11970;SDS011;6045;42.682;23.294;2022-12-18T09:24:33;6.70;;;4.43;;
11970;SDS011;6045;42.682;23.294;2022-12-18T09:27:26;7.93;;;4.47;;
11970;SDS011;6045;42.682;23.294;2022-12-18T09:29:53;3.17;;;2.83;;
11970;SDS011;6045;42.682;23.294;2022-12-18T09:33:07;6.13;;;2.97;;
11970;SDS011;6045;42.682;23.294;2022-12-18T09:35:30;8.30;;;4.50;;
11970;SDS011;6045;42.682;23.294;2022-12-18T09:41:40;9.63;;;5.17;;
11970;SDS011;6045;42.682;23.294;2022-12-18T09:44:32;5.97;;;4.80;;
11970;SDS011;6045;42.682;23.294;2022-12-18T09:47:22;8.60;;;5.20;;
11970;SDS011;6045;42.682;23.294;2022-12-18T09:50:32;11.60;;;5.43;;
11970;SDS011;6045;42.682;23.294;2022-12-18T09:53:21;6.60;;;4.47;;
11970;SDS011;6045;42.682;23.294;2022-12-18T09:56:10;8.20;;;4.93;;
11970;SDS011;6045;42.682;23.294;2022-12-18T09:58:50;7.57;;;4.37;;
11970;SDS011;6045;42.682;23.294;2022-12-18T10:01:31;4.27;;;3.53;;
11970;SDS011;6045;42.682;23.294;2022-12-18T10:11:16;8.37;;;3.53;;
11970;SDS011;6045;42.682;23.294;2022-12-18T10:13:54;6.40;;;4.80;;
11970;SDS011;6045;42.682;23.294;2022-12-18T10:16:28;6.37;;;2.43;;
11970;SDS011;6045;42.682;23.294;2022-12-18T10:19:03;3.90;;;2.43;;
11970;SDS011;6045;42.682;23.294;2022-12-18T10:21:42;6.83;;;4.47;;
11970;SDS011;6045;42.682;23.294;2022-12-18T10:24:17;6.37;;;3.20;;
11970;SDS011;6045;42.682;23.294;2022-12-18T10:26:50;6.43;;;3.07;;
11970;SDS011;6045;42.682;23.294;2022-12-18T10:29:19;5.33;;;2.67;;
11970;SDS011;6045;42.682;23.294;2022-12-18T10:31:46;11.93;;;3.73;;
11970;SDS011;6045;42.682;23.294;2022-12-18T10:34:13;8.53;;;3.23;;
11970;SDS011;6045;42.682;23.294;2022-12-18T10:36:41;3.77;;;3.13;;
11970;SDS011;6045;42.682;23.294;2022-12-18T10:39:15;5.63;;;3.80;;
11970;SDS011;6045;42.682;23.294;2022-12-18T10:41:43;4.97;;;3.43;;
11970;SDS011;6045;42.682;23.294;2022-12-18T10:44:14;6.73;;;3.33;;
11970;SDS011;6045;42.682;23.294;2022-12-18T10:46:44;9.67;;;5.53;;
11970;SDS011;6045;42.682;23.294;2022-12-18T10:49:18;8.00;;;3.03;;
11970;SDS011;6045;42.682;23.294;2022-12-18T10:51:48;8.63;;;5.10;;
11970;SDS011;6045;42.682;23.294;2022-12-18T10:54:17;9.33;;;4.13;;
11970;SDS011;6045;42.682;23.294;2022-12-18T10:56:47;6.37;;;4.03;;
11970;SDS011;6045;42.682;23.294;2022-12-18T10:59:23;5.43;;;4.03;;
11970;SDS011;6045;42.682;23.294;2022-12-18T11:01:56;5.80;;;4.73;;
11970;SDS011;6045;42.682;23.294;2022-12-18T11:04:27;9.30;;;3.97;;
11970;SDS011;6045;42.682;23.294;2022-12-18T11:10:15;6.37;;;3.03;;
11970;SDS011;6045;42.682;23.294;2022-12-18T11:12:42;5.37;;;2.47;;
11970;SDS011;6045;42.682;23.294;2022-12-18T11:15:15;3.47;;;2.93;;
11970;SDS011;6045;42.682;23.294;2022-12-18T11:17:43;6.10;;;4.47;;
11970;SDS011;6045;42.682;23.294;2022-12-18T11:22:58;5.63;;;3.50;;
11970;SDS011;6045;42.682;23.294;2022-12-18T11:25:28;4.90;;;2.80;;
11970;SDS011;6045;42.682;23.294;2022-12-18T11:27:55;5.83;;;4.03;;
11970;SDS011;6045;42.682;23.294;2022-12-18T11:30:26;6.07;;;2.87;;
11970;SDS011;6045;42.682;23.294;2022-12-18T11:33:01;2.73;;;2.43;;
11970;SDS011;6045;42.682;23.294;2022-12-18T11:35:42;10.10;;;3.30;;
11970;SDS011;6045;42.682;23.294;2022-12-18T11:38:17;7.03;;;3.93;;
11970;SDS011;6045;42.682;23.294;2022-12-18T11:40:51;5.73;;;2.57;;
11970;SDS011;6045;42.682;23.294;2022-12-18T11:43:23;7.70;;;4.17;;
11970;SDS011;6045;42.682;23.294;2022-12-18T11:45:56;4.03;;;2.33;;
11970;SDS011;6045;42.682;23.294;2022-12-18T11:48:28;5.50;;;3.57;;
11970;SDS011;6045;42.682;23.294;2022-12-18T11:50:59;3.27;;;2.97;;
11970;SDS011;6045;42.682;23.294;2022-12-18T11:53:30;8.23;;;4.10;;
11970;SDS011;6045;42.682;23.294;2022-12-18T11:56:02;10.00;;;3.53;;
11970;SDS011;6045;42.682;23.294;2022-12-18T11:59:04;4.63;;;3.23;;
11970;SDS011;6045;42.682;23.294;2022-12-18T12:01:46;12.43;;;4.83;;
11970;SDS011;6045;42.682;23.294;2022-12-18T12:07:26;4.33;;;2.90;;
11970;SDS011;6045;42.682;23.294;2022-12-18T12:10:07;8.63;;;4.60;;
11970;SDS011;6045;42.682;23.294;2022-12-18T12:12:46;7.63;;;4.73;;
11970;SDS011;6045;42.682;23.294;2022-12-18T12:15:28;7.27;;;4.40;;
11970;SDS011;6045;42.682;23.294;2022-12-18T12:18:06;5.47;;;3.63;;
11970;SDS011;6045;42.682;23.294;2022-12-18T12:20:45;6.87;;;3.73;;
11970;SDS011;6045;42.682;23.294;2022-12-18T12:23:22;5.83;;;2.77;;
11970;SDS011;6045;42.682;23.294;2022-12-18T12:25:56;5.43;;;2.57;;
11970;SDS011;6045;42.682;23.294;2022-12-18T12:29:05;6.23;;;3.30;;
11970;SDS011;6045;42.682;23.294;2022-12-18T12:32:07;7.63;;;3.30;;
11970;SDS011;6045;42.682;23.294;2022-12-18T12:34:48;5.03;;;3.07;;
11970;SDS011;6045;42.682;23.294;2022-12-18T12:37:30;11.67;;;5.40;;
11970;SDS011;6045;42.682;23.294;2022-12-18T12:40:05;10.00;;;3.70;;
11970;SDS011;6045;42.682;23.294;2022-12-18T12:42:34;9.17;;;4.20;;
11970;SDS011;6045;42.682;23.294;2022-12-18T12:45:22;9.57;;;3.73;;
11970;SDS011;6045;42.682;23.294;2022-12-18T12:47:56;5.67;;;4.87;;
11970;SDS011;6045;42.682;23.294;2022-12-18T12:50:26;11.17;;;5.20;;
11970;SDS011;6045;42.682;23.294;2022-12-18T12:52:54;8.60;;;4.33;;
11970;SDS011;6045;42.682;23.294;2022-12-18T12:55:23;10.43;;;5.30;;
11970;SDS011;6045;42.682;23.294;2022-12-18T12:57:55;11.97;;;6.07;;
11970;SDS011;6045;42.682;23.294;2022-12-18T13:00:30;12.67;;;6.07;;
11970;SDS011;6045;42.682;23.294;2022-12-18T13:03:04;2.97;;;2.63;;
11970;SDS011;6045;42.682;23.294;2022-12-18T13:05:41;7.97;;;4.83;;
11970;SDS011;6045;42.682;23.294;2022-12-18T13:08:21;9.67;;;4.93;;
11970;SDS011;6045;42.682;23.294;2022-12-18T13:10:51;10.93;;;5.10;;
11970;SDS011;6045;42.682;23.294;2022-12-18T13:13:47;6.43;;;4.57;;
11970;SDS011;6045;42.682;23.294;2022-12-18T13:16:14;8.30;;;4.67;;
11970;SDS011;6045;42.682;23.294;2022-12-18T13:18:48;6.33;;;4.27;;
11970;SDS011;6045;42.682;23.294;2022-12-18T13:21:20;11.43;;;5.20;;
11970;SDS011;6045;42.682;23.294;2022-12-18T13:23:52;3.40;;;2.53;;
11970;SDS011;6045;42.682;23.294;2022-12-18T13:26:33;6.37;;;3.63;;
11970;SDS011;6045;42.682;23.294;2022-12-18T13:29:03;7.03;;;4.43;;
11970;SDS011;6045;42.682;23.294;2022-12-18T13:34:36;5.37;;;4.33;;
11970;SDS011;6045;42.682;23.294;2022-12-18T13:43:34;6.47;;;4.30;;
11970;SDS011;6045;42.682;23.294;2022-12-18T13:46:22;9.17;;;5.33;;
11970;SDS011;6045;42.682;23.294;2022-12-18T13:49:21;6.27;;;3.83;;
11970;SDS011;6045;42.682;23.294;2022-12-18T13:51:50;8.17;;;4.07;;
11970;SDS011;6045;42.682;23.294;2022-12-18T13:54:26;9.60;;;4.07;;
11970;SDS011;6045;42.682;23.294;2022-12-18T13:57:00;8.17;;;3.90;;
11970;SDS011;6045;42.682;23.294;2022-12-18T13:59:34;6.17;;;3.23;;
11970;SDS011;6045;42.682;23.294;2022-12-18T14:02:07;5.80;;;4.43;;
11970;SDS011;6045;42.682;23.294;2022-12-18T14:04:39;9.50;;;5.70;;
11970;SDS011;6045;42.682;23.294;2022-12-18T14:07:06;7.90;;;4.37;;
11970;SDS011;6045;42.682;23.294;2022-12-18T14:09:39;5.17;;;3.53;;
11970;SDS011;6045;42.682;23.294;2022-12-18T14:12:12;7.07;;;3.97;;
11970;SDS011;6045;42.682;23.294;2022-12-18T14:15:01;6.83;;;3.33;;
11970;SDS011;6045;42.682;23.294;2022-12-18T14:17:32;4.80;;;3.33;;
11970;SDS011;6045;42.682;23.294;2022-12-18T14:20:00;4.53;;;3.80;;
11970;SDS011;6045;42.682;23.294;2022-12-18T14:22:27;6.07;;;3.10;;
11970;SDS011;6045;42.682;23.294;2022-12-18T14:25:05;10.67;;;4.17;;
11970;SDS011;6045;42.682;23.294;2022-12-18T14:27:41;8.57;;;3.37;;
11970;SDS011;6045;42.682;23.294;2022-12-18T14:30:24;7.23;;;3.83;;
11970;SDS011;6045;42.682;23.294;2022-12-18T14:32:59;5.30;;;3.37;;
11970;SDS011;6045;42.682;23.294;2022-12-18T14:35:27;5.13;;;4.20;;
11970;SDS011;6045;42.682;23.294;2022-12-18T14:37:59;5.30;;;3.17;;
11970;SDS011;6045;42.682;23.294;2022-12-18T14:40:59;6.80;;;3.23;;
11970;SDS011;6045;42.682;23.294;2022-12-18T14:43:29;4.30;;;3.27;;
11970;SDS011;6045;42.682;23.294;2022-12-18T14:46:01;6.30;;;3.40;;
11970;SDS011;6045;42.682;23.294;2022-12-18T14:48:34;4.53;;;2.53;;
11970;SDS011;6045;42.682;23.294;2022-12-18T14:51:05;6.43;;;3.53;;
11970;SDS011;6045;42.682;23.294;2022-12-18T14:53:42;4.80;;;2.90;;
11970;SDS011;6045;42.682;23.294;2022-12-18T14:56:14;7.27;;;4.10;;
11970;SDS011;6045;42.682;23.294;2022-12-18T14:58:44;8.67;;;3.80;;
11970;SDS011;6045;42.682;23.294;2022-12-18T15:01:25;8.33;;;5.63;;
11970;SDS011;6045;42.682;23.294;2022-12-18T15:03:53;9.83;;;4.57;;
11970;SDS011;6045;42.682;23.294;2022-12-18T15:06:26;7.57;;;4.43;;
11970;SDS011;6045;42.682;23.294;2022-12-18T15:08:56;7.40;;;5.83;;
11970;SDS011;6045;42.682;23.294;2022-12-18T15:11:34;11.10;;;4.40;;
11970;SDS011;6045;42.682;23.294;2022-12-18T15:14:22;9.43;;;4.50;;
11970;SDS011;6045;42.682;23.294;2022-12-18T15:17:02;6.40;;;3.73;;
11970;SDS011;6045;42.682;23.294;2022-12-18T15:19:35;11.23;;;4.27;;
11970;SDS011;6045;42.682;23.294;2022-12-18T15:22:13;7.23;;;3.87;;
11970;SDS011;6045;42.682;23.294;2022-12-18T15:24:45;6.37;;;4.80;;
11970;SDS011;6045;42.682;23.294;2022-12-18T15:27:20;8.13;;;3.57;;
11970;SDS011;6045;42.682;23.294;2022-12-18T15:29:59;7.37;;;4.23;;
11970;SDS011;6045;42.682;23.294;2022-12-18T15:32:28;6.23;;;4.03;;
11970;SDS011;6045;42.682;23.294;2022-12-18T15:35:02;4.10;;;3.63;;
11970;SDS011;6045;42.682;23.294;2022-12-18T15:37:33;6.27;;;4.27;;
11970;SDS011;6045;42.682;23.294;2022-12-18T15:40:01;5.33;;;4.17;;
11970;SDS011;6045;42.682;23.294;2022-12-18T15:42:28;7.60;;;3.97;;
11970;SDS011;6045;42.682;23.294;2022-12-18T15:45:12;6.20;;;3.63;;
11970;SDS011;6045;42.682;23.294;2022-12-18T15:47:41;10.40;;;5.47;;
11970;SDS011;6045;42.682;23.294;2022-12-18T15:50:08;10.20;;;6.07;;
11970;SDS011;6045;42.682;23.294;2022-12-18T15:52:36;23.27;;;12.50;;
11970;SDS011;6045;42.682;23.294;2022-12-18T15:55:08;8.03;;;5.73;;
11970;SDS011;6045;42.682;23.294;2022-12-18T15:57:54;5.33;;;4.10;;
11970;SDS011;6045;42.682;23.294;2022-12-18T16:00:21;12.87;;;5.83;;